sensor_id;sensor_type;location;lat;lon;timestamp;pressure;altitude;pressure_sealevel;temperature;humidity
40730;BME280;26418;50.070;8.436;2023-02-20T00:02:21;101079.06;;;7.57;82.90
40730;BME280;26418;50.070;8.436;2023-02-20T00:04:46;101061.72;;;7.48;83.40
40730;BME280;26418;50.070;8.436;2023-02-20T00:07:11;101057.88;;;7.38;83.96
40730;BME280;26418;50.070;8.436;2023-02-20T00:09:36;101063.56;;;7.42;84.16
40730;BME280;26418;50.070;8.436;2023-02-20T00:12:02;101068.63;;;7.38;84.25
40730;BME280;26418;50.070;8.436;2023-02-20T00:14:27;101064.81;;;7.34;84.41
40730;BME280;26418;50.070;8.436;2023-02-20T00:16:54;101064.09;;;7.22;84.83
40730;BME280;26418;50.070;8.436;2023-02-20T00:19:19;101059.97;;;7.14;85.13
40730;BME280;26418;50.070;8.436;2023-02-20T00:21:49;101055.81;;;7.06;85.81
40730;BME280;26418;50.070;8.436;2023-02-20T00:24:16;101057.78;;;7.11;86.00
40730;BME280;26418;50.070;8.436;2023-02-20T00:26:50;101049.25;;;6.97;86.41
40730;BME280;26418;50.070;8.436;2023-02-20T00:29:19;101062.19;;;7.00;86.74
40730;BME280;26418;50.070;8.436;2023-02-20T00:31:55;101063.19;;;6.94;87.38
40730;BME280;26418;50.070;8.436;2023-02-20T00:34:25;101070.38;;;6.88;87.67
40730;BME280;26418;50.070;8.436;2023-02-20T00:36:51;101066.00;;;6.82;87.92
40730;BME280;26418;50.070;8.436;2023-02-20T00:39:16;101071.84;;;6.79;88.46
40730;BME280;26418;50.070;8.436;2023-02-20T00:41:42;101062.09;;;6.73;88.73
40730;BME280;26418;50.070;8.436;2023-02-20T00:44:07;101058.50;;;6.67;89.13
40730;BME280;26418;50.070;8.436;2023-02-20T00:46:32;101058.66;;;6.60;89.57
40730;BME280;26418;50.070;8.436;2023-02-20T00:48:58;101076.69;;;6.60;89.80
40730;BME280;26418;50.070;8.436;2023-02-20T00:51:23;101079.25;;;6.55;89.99
40730;BME280;26418;50.070;8.436;2023-02-20T00:53:49;101071.72;;;6.52;90.21
40730;BME280;26418;50.070;8.436;2023-02-20T00:56:14;101074.06;;;6.48;90.36
40730;BME280;26418;50.070;8.436;2023-02-20T00:58:39;101079.94;;;6.45;90.41
40730;BME280;26418;50.070;8.436;2023-02-20T01:01:05;101073.19;;;6.42;90.75
40730;BME280;26418;50.070;8.436;2023-02-20T01:03:30;101071.78;;;6.40;90.88
40730;BME280;26418;50.070;8.436;2023-02-20T01:05:56;101085.69;;;6.37;91.01
40730;BME280;26418;50.070;8.436;2023-02-20T01:08:21;101075.59;;;6.27;91.08
40730;BME280;26418;50.070;8.436;2023-02-20T01:10:46;101076.66;;;6.26;91.06
40730;BME280;26418;50.070;8.436;2023-02-20T01:13:12;101076.00;;;6.19;91.29
40730;BME280;26418;50.070;8.436;2023-02-20T01:15:37;101069.00;;;6.18;91.59
40730;BME280;26418;50.070;8.436;2023-02-20T01:18:03;101061.41;;;6.14;91.78
40730;BME280;26418;50.070;8.436;2023-02-20T01:20:30;101060.50;;;6.09;91.84
40730;BME280;26418;50.070;8.436;2023-02-20T01:22:56;101050.75;;;6.03;91.81
40730;BME280;26418;50.070;8.436;2023-02-20T01:25:22;101068.97;;;6.01;92.14
40730;BME280;26418;50.070;8.436;2023-02-20T01:27:47;101061.16;;;5.99;92.08
40730;BME280;26418;50.070;8.436;2023-02-20T01:30:13;101061.63;;;5.96;92.20
40730;BME280;26418;50.070;8.436;2023-02-20T01:32:38;101059.06;;;5.89;92.14
40730;BME280;26418;50.070;8.436;2023-02-20T01:35:04;101055.00;;;5.87;92.44
40730;BME280;26418;50.070;8.436;2023-02-20T01:37:30;101058.16;;;5.83;92.48
40730;BME280;26418;50.070;8.436;2023-02-20T01:39:55;101060.03;;;5.83;92.44
40730;BME280;26418;50.070;8.436;2023-02-20T01:42:23;101056.78;;;5.81;92.13
40730;BME280;26418;50.070;8.436;2023-02-20T01:44:49;101047.00;;;5.75;92.05
40730;BME280;26418;50.070;8.436;2023-02-20T01:47:17;101058.88;;;5.79;91.99
40730;BME280;26418;50.070;8.436;2023-02-20T01:49:47;101051.41;;;5.81;91.30
40730;BME280;26418;50.070;8.436;2023-02-20T01:52:20;101048.13;;;5.79;90.83
40730;BME280;26418;50.070;8.436;2023-02-20T01:54:53;101042.19;;;5.77;90.75
40730;BME280;26418;50.070;8.436;2023-02-20T01:57:22;101043.25;;;5.76;90.14
40730;BME280;26418;50.070;8.436;2023-02-20T01:59:51;101039.50;;;5.77;89.67
40730;BME280;26418;50.070;8.436;2023-02-20T02:02:19;101025.53;;;5.75;89.04
40730;BME280;26418;50.070;8.436;2023-02-20T02:04:46;101028.22;;;5.75;89.39
40730;BME280;26418;50.070;8.436;2023-02-20T02:07:12;101020.16;;;5.75;89.26
40730;BME280;26418;50.070;8.436;2023-02-20T02:09:50;101015.25;;;5.72;89.25
40730;BME280;26418;50.070;8.436;2023-02-20T02:12:17;101002.47;;;5.62;89.44
40730;BME280;26418;50.070;8.436;2023-02-20T02:14:42;101004.91;;;5.63;89.49
40730;BME280;26418;50.070;8.436;2023-02-20T02:17:22;101001.06;;;5.59;89.56
40730;BME280;26418;50.070;8.436;2023-02-20T02:31:41;101001.28;;;5.41;90.41
40730;BME280;26418;50.070;8.436;2023-02-20T02:44:38;101005.44;;;5.48;91.33
40730;BME280;26418;50.070;8.436;2023-02-20T02:47:20;101004.13;;;5.51;91.29
40730;BME280;26418;50.070;8.436;2023-02-20T02:50:03;100993.91;;;5.48;91.35
40730;BME280;26418;50.070;8.436;2023-02-20T02:52:31;100981.34;;;5.37;91.26
40730;BME280;26418;50.070;8.436;2023-02-20T02:55:20;100991.44;;;5.46;91.34
40730;BME280;26418;50.070;8.436;2023-02-20T02:57:46;100990.22;;;5.37;91.47
40730;BME280;26418;50.070;8.436;2023-02-20T03:00:18;100990.06;;;5.44;91.98
40730;BME280;26418;50.070;8.436;2023-02-20T03:02:52;100981.53;;;5.47;91.86
40730;BME280;26418;50.070;8.436;2023-02-20T03:05:22;100976.97;;;5.47;91.95
40730;BME280;26418;50.070;8.436;2023-02-20T03:07:52;100979.91;;;5.46;91.54
40730;BME280;26418;50.070;8.436;2023-02-20T03:10:23;100992.59;;;5.50;91.28
40730;BME280;26418;50.070;8.436;2023-02-20T03:13:00;100991.31;;;5.53;91.17
40730;BME280;26418;50.070;8.436;2023-02-20T03:15:32;100997.00;;;5.57;90.78
40730;BME280;26418;50.070;8.436;2023-02-20T03:18:21;100999.56;;;5.63;90.79
40730;BME280;26418;50.070;8.436;2023-02-20T03:20:53;100987.31;;;5.56;90.60
40730;BME280;26418;50.070;8.436;2023-02-20T03:23:23;100991.84;;;5.67;90.43
40730;BME280;26418;50.070;8.436;2023-02-20T03:25:54;100990.53;;;5.70;89.42
40730;BME280;26418;50.070;8.436;2023-02-20T03:28:27;100997.53;;;5.71;88.88
40730;BME280;26418;50.070;8.436;2023-02-20T03:31:08;100992.16;;;5.71;88.52
40730;BME280;26418;50.070;8.436;2023-02-20T03:33:45;100999.16;;;5.72;87.98
40730;BME280;26418;50.070;8.436;2023-02-20T03:36:35;100991.34;;;5.70;88.33
40730;BME280;26418;50.070;8.436;2023-02-20T03:39:24;100994.25;;;5.69;88.07
40730;BME280;26418;50.070;8.436;2023-02-20T03:42:12;100996.41;;;5.66;88.06
40730;BME280;26418;50.070;8.436;2023-02-20T03:44:59;100994.97;;;5.64;88.24
40730;BME280;26418;50.070;8.436;2023-02-20T03:47:27;100990.84;;;5.56;88.56
40730;BME280;26418;50.070;8.436;2023-02-20T03:49:54;100985.28;;;5.46;88.38
40730;BME280;26418;50.070;8.436;2023-02-20T03:52:21;100996.91;;;5.51;88.91
40730;BME280;26418;50.070;8.436;2023-02-20T03:54:47;101007.88;;;5.50;89.04
40730;BME280;26418;50.070;8.436;2023-02-20T03:57:16;101000.31;;;5.47;89.07
40730;BME280;26418;50.070;8.436;2023-02-20T03:59:55;101003.72;;;5.42;89.40
40730;BME280;26418;50.070;8.436;2023-02-20T04:02:31;100993.63;;;5.32;89.40
40730;BME280;26418;50.070;8.436;2023-02-20T04:05:02;101002.00;;;5.36;89.77
40730;BME280;26418;50.070;8.436;2023-02-20T04:07:53;101004.09;;;5.34;89.56
40730;BME280;26418;50.070;8.436;2023-02-20T04:10:24;100997.56;;;5.30;89.75
40730;BME280;26418;50.070;8.436;2023-02-20T04:12:51;100991.63;;;5.28;90.06
40730;BME280;26418;50.070;8.436;2023-02-20T04:15:19;100982.69;;;5.22;90.21
40730;BME280;26418;50.070;8.436;2023-02-20T04:17:51;100978.69;;;5.25;90.68
40730;BME280;26418;50.070;8.436;2023-02-20T04:20:19;100980.00;;;5.22;90.64
40730;BME280;26418;50.070;8.436;2023-02-20T04:22:47;100982.44;;;5.24;90.92
40730;BME280;26418;50.070;8.436;2023-02-20T04:25:21;100987.78;;;5.24;90.81
40730;BME280;26418;50.070;8.436;2023-02-20T04:27:49;100962.41;;;5.14;90.57
40730;BME280;26418;50.070;8.436;2023-02-20T04:30:15;100988.75;;;5.17;90.48
40730;BME280;26418;50.070;8.436;2023-02-20T04:32:40;100995.78;;;5.07;90.70
40730;BME280;26418;50.070;8.436;2023-02-20T04:35:06;101000.91;;;5.08;90.94
40730;BME280;26418;50.070;8.436;2023-02-20T04:37:31;100993.31;;;5.05;91.28
40730;BME280;26418;50.070;8.436;2023-02-20T04:39:56;100997.03;;;5.04;91.50
40730;BME280;26418;50.070;8.436;2023-02-20T04:42:22;100998.34;;;5.01;91.60
40730;BME280;26418;50.070;8.436;2023-02-20T04:44:47;100991.25;;;4.95;91.83
40730;BME280;26418;50.070;8.436;2023-02-20T04:47:15;100996.03;;;4.93;91.79
40730;BME280;26418;50.070;8.436;2023-02-20T04:49:41;100991.25;;;4.83;91.48
40730;BME280;26418;50.070;8.436;2023-02-20T04:52:06;100993.00;;;4.78;91.83
40730;BME280;26418;50.070;8.436;2023-02-20T04:54:32;100980.56;;;4.71;92.10
40730;BME280;26418;50.070;8.436;2023-02-20T04:56:57;100982.31;;;4.66;92.30
40730;BME280;26418;50.070;8.436;2023-02-20T04:59:23;100979.53;;;4.61;92.55
40730;BME280;26418;50.070;8.436;2023-02-20T05:01:49;100984.16;;;4.53;92.83
40730;BME280;26418;50.070;8.436;2023-02-20T05:04:17;100986.50;;;4.50;92.96
40730;BME280;26418;50.070;8.436;2023-02-20T05:06:46;100985.94;;;4.48;93.44
40730;BME280;26418;50.070;8.436;2023-02-20T05:09:12;100991.50;;;4.46;93.63
40730;BME280;26418;50.070;8.436;2023-02-20T05:11:39;100991.75;;;4.45;93.73
40730;BME280;26418;50.070;8.436;2023-02-20T05:14:04;100989.53;;;4.41;93.83
40730;BME280;26418;50.070;8.436;2023-02-20T05:16:30;100983.00;;;4.37;93.79
40730;BME280;26418;50.070;8.436;2023-02-20T05:18:55;100978.34;;;4.33;94.03
40730;BME280;26418;50.070;8.436;2023-02-20T05:21:20;100978.59;;;4.31;94.07
40730;BME280;26418;50.070;8.436;2023-02-20T05:24:05;100987.09;;;4.28;94.32
40730;BME280;26418;50.070;8.436;2023-02-20T05:26:30;100977.16;;;4.17;94.56
40730;BME280;26418;50.070;8.436;2023-02-20T05:28:55;100986.50;;;4.26;94.66
40730;BME280;26418;50.070;8.436;2023-02-20T05:31:21;100975.78;;;4.26;94.75
40730;BME280;26418;50.070;8.436;2023-02-20T05:33:46;100985.44;;;4.27;94.88
40730;BME280;26418;50.070;8.436;2023-02-20T05:36:11;100979.97;;;4.22;94.89
40730;BME280;26418;50.070;8.436;2023-02-20T05:38:37;100967.50;;;4.16;94.95
40730;BME280;26418;50.070;8.436;2023-02-20T05:41:02;100972.06;;;4.27;95.37
40730;BME280;26418;50.070;8.436;2023-02-20T05:43:28;100977.31;;;4.34;95.46
40730;BME280;26418;50.070;8.436;2023-02-20T05:45:53;100977.91;;;4.36;95.36
40730;BME280;26418;50.070;8.436;2023-02-20T05:48:18;100970.56;;;4.31;95.08
40730;BME280;26418;50.070;8.436;2023-02-20T05:50:43;100959.03;;;4.31;95.17
40730;BME280;26418;50.070;8.436;2023-02-20T05:53:09;100960.53;;;4.38;95.38
40730;BME280;26418;50.070;8.436;2023-02-20T05:55:34;100960.53;;;4.38;95.27
40730;BME280;26418;50.070;8.436;2023-02-20T05:57:59;100958.66;;;4.39;94.98
40730;BME280;26418;50.070;8.436;2023-02-20T06:00:25;100943.88;;;4.24;95.00
40730;BME280;26418;50.070;8.436;2023-02-20T06:02:50;100952.28;;;4.28;95.33
40730;BME280;26418;50.070;8.436;2023-02-20T06:05:16;100957.97;;;4.32;95.29
40730;BME280;26418;50.070;8.436;2023-02-20T06:07:45;100951.22;;;4.29;95.49
40730;BME280;26418;50.070;8.436;2023-02-20T06:10:10;100944.81;;;4.18;95.60
40730;BME280;26418;50.070;8.436;2023-02-20T06:12:36;100961.09;;;4.29;95.54
40730;BME280;26418;50.070;8.436;2023-02-20T06:15:01;100953.56;;;4.25;95.19
40730;BME280;26418;50.070;8.436;2023-02-20T06:17:27;100935.59;;;4.14;95.56
40730;BME280;26418;50.070;8.436;2023-02-20T06:19:53;100943.78;;;4.19;95.63
40730;BME280;26418;50.070;8.436;2023-02-20T06:22:19;100958.31;;;4.23;95.65
40730;BME280;26418;50.070;8.436;2023-02-20T06:24:45;100949.13;;;4.19;95.89
40730;BME280;26418;50.070;8.436;2023-02-20T06:27:11;100951.56;;;4.21;95.91
40730;BME280;26418;50.070;8.436;2023-02-20T06:29:37;100949.13;;;4.19;96.05
40730;BME280;26418;50.070;8.436;2023-02-20T06:32:02;100947.97;;;4.15;96.08
40730;BME280;26418;50.070;8.436;2023-02-20T06:34:27;100952.63;;;4.20;96.14
40730;BME280;26418;50.070;8.436;2023-02-20T06:36:58;100949.59;;;4.16;96.34
40730;BME280;26418;50.070;8.436;2023-02-20T06:39:24;100961.59;;;4.25;96.38
40730;BME280;26418;50.070;8.436;2023-02-20T06:41:49;100967.16;;;4.24;95.91
40730;BME280;26418;50.070;8.436;2023-02-20T06:44:14;100950.75;;;4.20;96.51
40730;BME280;26418;50.070;8.436;2023-02-20T06:46:39;100961.34;;;4.27;96.64
40730;BME280;26418;50.070;8.436;2023-02-20T06:49:05;100961.25;;;4.34;96.80
40730;BME280;26418;50.070;8.436;2023-02-20T06:51:32;100964.97;;;4.33;96.60
40730;BME280;26418;50.070;8.436;2023-02-20T06:53:58;100970.78;;;4.41;97.07
40730;BME280;26418;50.070;8.436;2023-02-20T06:56:27;100971.59;;;4.42;96.71
40730;BME280;26418;50.070;8.436;2023-02-20T06:58:53;100973.00;;;4.45;96.91
40730;BME280;26418;50.070;8.436;2023-02-20T07:01:21;100965.31;;;4.48;96.80
40730;BME280;26418;50.070;8.436;2023-02-20T07:03:48;100970.41;;;4.50;96.65
40730;BME280;26418;50.070;8.436;2023-02-20T07:06:14;100969.38;;;4.51;96.56
40730;BME280;26418;50.070;8.436;2023-02-20T07:08:39;100970.41;;;4.50;96.21
40730;BME280;26418;50.070;8.436;2023-02-20T07:11:05;100966.34;;;4.47;96.50
40730;BME280;26418;50.070;8.436;2023-02-20T07:13:30;100965.06;;;4.50;96.66
40730;BME280;26418;50.070;8.436;2023-02-20T07:15:56;100971.50;;;4.49;96.76
40730;BME280;26418;50.070;8.436;2023-02-20T07:18:21;100971.84;;;4.52;96.80
40730;BME280;26418;50.070;8.436;2023-02-20T07:20:49;100956.47;;;4.48;96.79
40730;BME280;26418;50.070;8.436;2023-02-20T07:23:15;100971.34;;;4.55;96.62
40730;BME280;26418;50.070;8.436;2023-02-20T07:25:41;100960.63;;;4.55;96.61
40730;BME280;26418;50.070;8.436;2023-02-20T07:28:06;100958.78;;;4.56;96.42
40730;BME280;26418;50.070;8.436;2023-02-20T07:30:34;100969.97;;;4.65;96.74
40730;BME280;26418;50.070;8.436;2023-02-20T07:33:00;100974.38;;;4.71;96.66
40730;BME280;26418;50.070;8.436;2023-02-20T07:35:25;100971.13;;;4.81;96.48
40730;BME280;26418;50.070;8.436;2023-02-20T07:37:51;100950.22;;;4.83;95.82
40730;BME280;26418;50.070;8.436;2023-02-20T07:40:16;100959.28;;;5.06;96.54
40730;BME280;26418;50.070;8.436;2023-02-20T07:42:41;100969.03;;;5.24;96.46
40730;BME280;26418;50.070;8.436;2023-02-20T07:45:07;100954.66;;;5.30;94.88
40730;BME280;26418;50.070;8.436;2023-02-20T07:47:34;100937.28;;;5.32;94.08
40730;BME280;26418;50.070;8.436;2023-02-20T07:49:59;100955.63;;;5.53;93.85
40730;BME280;26418;50.070;8.436;2023-02-20T07:52:24;100948.56;;;5.63;93.08
40730;BME280;26418;50.070;8.436;2023-02-20T07:54:49;100934.41;;;5.68;92.54
40730;BME280;26418;50.070;8.436;2023-02-20T07:57:15;100941.56;;;5.79;92.26
40730;BME280;26418;50.070;8.436;2023-02-20T07:59:40;100945.41;;;5.83;91.73
40730;BME280;26418;50.070;8.436;2023-02-20T08:02:05;100948.41;;;5.87;91.59
40730;BME280;26418;50.070;8.436;2023-02-20T08:04:31;100949.00;;;5.89;91.35
40730;BME280;26418;50.070;8.436;2023-02-20T08:06:56;100943.13;;;5.92;91.27
40730;BME280;26418;50.070;8.436;2023-02-20T08:09:22;100939.47;;;5.98;91.33
40730;BME280;26418;50.070;8.436;2023-02-20T08:11:47;100936.56;;;6.00;91.32
40730;BME280;26418;50.070;8.436;2023-02-20T08:14:13;100936.41;;;6.07;91.34
40730;BME280;26418;50.070;8.436;2023-02-20T08:16:38;100933.22;;;6.10;90.50
40730;BME280;26418;50.070;8.436;2023-02-20T08:19:04;100918.84;;;6.16;90.81
40730;BME280;26418;50.070;8.436;2023-02-20T08:21:29;100918.22;;;6.31;90.72
40730;BME280;26418;50.070;8.436;2023-02-20T08:23:54;100918.94;;;6.43;90.33
40730;BME280;26418;50.070;8.436;2023-02-20T08:26:20;100913.78;;;6.59;90.09
40730;BME280;26418;50.070;8.436;2023-02-20T08:28:47;100906.84;;;6.63;89.13
40730;BME280;26418;50.070;8.436;2023-02-20T08:31:12;100893.41;;;6.63;88.95
40730;BME280;26418;50.070;8.436;2023-02-20T08:33:38;100903.28;;;6.80;89.42
40730;BME280;26418;50.070;8.436;2023-02-20T08:36:03;100892.63;;;6.90;90.61
40730;BME280;26418;50.070;8.436;2023-02-20T08:38:36;100901.22;;;7.09;88.54
40730;BME280;26418;50.070;8.436;2023-02-20T08:41:04;100897.53;;;7.20;87.82
40730;BME280;26418;50.070;8.436;2023-02-20T08:43:32;100891.47;;;7.30;87.38
40730;BME280;26418;50.070;8.436;2023-02-20T08:45:57;100900.75;;;7.45;87.85
40730;BME280;26418;50.070;8.436;2023-02-20T08:48:23;100894.66;;;7.60;87.70
40730;BME280;26418;50.070;8.436;2023-02-20T08:50:48;100899.06;;;7.66;85.80
40730;BME280;26418;50.070;8.436;2023-02-20T08:53:14;100898.00;;;7.72;85.29
40730;BME280;26418;50.070;8.436;2023-02-20T08:55:40;100896.94;;;7.73;85.36
40730;BME280;26418;50.070;8.436;2023-02-20T08:58:05;100882.44;;;7.74;85.52
40730;BME280;26418;50.070;8.436;2023-02-20T09:00:31;100900.06;;;7.92;84.71
40730;BME280;26418;50.070;8.436;2023-02-20T09:02:56;100901.72;;;7.98;84.58
40730;BME280;26418;50.070;8.436;2023-02-20T09:05:21;100898.00;;;8.05;84.77
40730;BME280;26418;50.070;8.436;2023-02-20T09:07:47;100885.41;;;8.15;84.70
40730;BME280;26418;50.070;8.436;2023-02-20T09:10:12;100894.06;;;8.23;84.34
40730;BME280;26418;50.070;8.436;2023-02-20T09:12:37;100900.59;;;8.37;83.95
40730;BME280;26418;50.070;8.436;2023-02-20T09:15:07;100894.50;;;8.47;82.95
40730;BME280;26418;50.070;8.436;2023-02-20T09:17:32;100901.31;;;8.60;82.78
40730;BME280;26418;50.070;8.436;2023-02-20T09:19:58;100891.63;;;8.69;81.83
40730;BME280;26418;50.070;8.436;2023-02-20T09:22:24;100888.72;;;8.81;81.39
40730;BME280;26418;50.070;8.436;2023-02-20T09:24:49;100893.38;;;9.01;80.69
40730;BME280;26418;50.070;8.436;2023-02-20T09:27:15;100908.78;;;9.16;78.91
40730;BME280;26418;50.070;8.436;2023-02-20T09:29:41;100901.78;;;9.20;79.65
40730;BME280;26418;50.070;8.436;2023-02-20T09:32:07;100902.09;;;9.34;79.55
40730;BME280;26418;50.070;8.436;2023-02-20T09:34:33;100905.06;;;9.53;82.54
40730;BME280;26418;50.070;8.436;2023-02-20T09:36:58;100899.13;;;9.77;80.18
40730;BME280;26418;50.070;8.436;2023-02-20T09:39:24;100895.59;;;10.18;81.51
40730;BME280;26418;50.070;8.436;2023-02-20T09:46:59;100892.22;;;11.17;76.43
40730;BME280;26418;50.070;8.436;2023-02-20T09:49:29;100889.34;;;11.43;71.45
40730;BME280;26418;50.070;8.436;2023-02-20T09:52:02;100874.78;;;11.39;69.40
40730;BME280;26418;50.070;8.436;2023-02-20T09:54:38;100873.69;;;11.40;69.45
40730;BME280;26418;50.070;8.436;2023-02-20T09:57:09;100873.59;;;11.51;69.69
40730;BME280;26418;50.070;8.436;2023-02-20T09:59:40;100882.97;;;11.63;69.18
40730;BME280;26418;50.070;8.436;2023-02-20T10:04:47;100880.13;;;11.50;66.34
40730;BME280;26418;50.070;8.436;2023-02-20T10:07:27;100891.63;;;11.31;68.21
40730;BME280;26418;50.070;8.436;2023-02-20T10:09:54;100881.16;;;11.14;68.23
40730;BME280;26418;50.070;8.436;2023-02-20T10:12:44;100890.34;;;11.18;68.42
40730;BME280;26418;50.070;8.436;2023-02-20T10:15:33;100878.94;;;11.21;67.71
40730;BME280;26418;50.070;8.436;2023-02-20T10:23:37;100866.41;;;11.30;66.55
40730;BME280;26418;50.070;8.436;2023-02-20T10:26:10;100874.72;;;11.44;66.54
40730;BME280;26418;50.070;8.436;2023-02-20T10:28:38;100860.09;;;11.45;66.42
40730;BME280;26418;50.070;8.436;2023-02-20T10:33:51;100858.72;;;11.48;66.40
40730;BME280;26418;50.070;8.436;2023-02-20T10:36:24;100854.78;;;11.64;66.52
40730;BME280;26418;50.070;8.436;2023-02-20T10:42:02;100847.38;;;12.05;63.25
40730;BME280;26418;50.070;8.436;2023-02-20T10:44:32;100843.94;;;11.99;63.54
40730;BME280;26418;50.070;8.436;2023-02-20T10:47:19;100841.38;;;12.08;63.18
40730;BME280;26418;50.070;8.436;2023-02-20T10:50:04;100845.38;;;12.16;62.93
40730;BME280;26418;50.070;8.436;2023-02-20T10:52:37;100835.25;;;12.21;63.10
40730;BME280;26418;50.070;8.436;2023-02-20T10:55:20;100835.97;;;12.32;63.15
40730;BME280;26418;50.070;8.436;2023-02-20T10:58:05;100829.16;;;12.35;61.60
40730;BME280;26418;50.070;8.436;2023-02-20T11:00:38;100823.66;;;12.40;60.89
40730;BME280;26418;50.070;8.436;2023-02-20T11:03:09;100825.25;;;12.46;60.58
40730;BME280;26418;50.070;8.436;2023-02-20T11:05:40;100806.38;;;12.55;60.54
40730;BME280;26418;50.070;8.436;2023-02-20T11:08:08;100800.53;;;12.67;60.70
40730;BME280;26418;50.070;8.436;2023-02-20T11:10:33;100802.09;;;12.92;59.69
40730;BME280;26418;50.070;8.436;2023-02-20T11:13:00;100789.84;;;12.95;58.84
40730;BME280;26418;50.070;8.436;2023-02-20T11:15:29;100802.66;;;13.08;57.63
40730;BME280;26418;50.070;8.436;2023-02-20T11:17:57;100787.25;;;13.03;57.50
40730;BME280;26418;50.070;8.436;2023-02-20T11:26:18;100776.94;;;13.39;56.91
40730;BME280;26418;50.070;8.436;2023-02-20T11:28:56;100777.34;;;13.46;56.02
40730;BME280;26418;50.070;8.436;2023-02-20T11:31:23;100766.59;;;13.55;56.28
40730;BME280;26418;50.070;8.436;2023-02-20T11:33:49;100767.22;;;13.65;55.96
40730;BME280;26418;50.070;8.436;2023-02-20T11:36:17;100762.78;;;13.70;55.13
40730;BME280;26418;50.070;8.436;2023-02-20T11:38:44;100761.47;;;13.67;55.20
40730;BME280;26418;50.070;8.436;2023-02-20T11:46:37;100737.41;;;14.02;54.99
40730;BME280;26418;50.070;8.436;2023-02-20T11:49:05;100725.44;;;14.03;54.35
40730;BME280;26418;50.070;8.436;2023-02-20T11:51:45;100727.84;;;14.05;54.97
40730;BME280;26418;50.070;8.436;2023-02-20T11:54:21;100732.25;;;14.14;54.19
40730;BME280;26418;50.070;8.436;2023-02-20T11:57:09;100730.06;;;14.03;53.59
40730;BME280;26418;50.070;8.436;2023-02-20T11:59:44;100713.66;;;13.94;53.66
40730;BME280;26418;50.070;8.436;2023-02-20T12:04:43;100719.41;;;13.78;53.28
40730;BME280;26418;50.070;8.436;2023-02-20T12:09:46;100710.63;;;13.54;54.54
40730;BME280;26418;50.070;8.436;2023-02-20T12:12:14;100710.72;;;13.62;55.51
40730;BME280;26418;50.070;8.436;2023-02-20T12:14:41;100700.56;;;13.68;54.38
40730;BME280;26418;50.070;8.436;2023-02-20T12:17:47;100700.38;;;13.78;54.66
40730;BME280;26418;50.070;8.436;2023-02-20T12:20:20;100706.59;;;13.79;53.26
40730;BME280;26418;50.070;8.436;2023-02-20T12:26:05;100700.47;;;13.59;53.82
40730;BME280;26418;50.070;8.436;2023-02-20T12:28:45;100702.69;;;13.57;53.83
40730;BME280;26418;50.070;8.436;2023-02-20T12:31:24;100701.38;;;13.55;53.32
40730;BME280;26418;50.070;8.436;2023-02-20T12:47:38;100678.63;;;13.92;54.02
40730;BME280;26418;50.070;8.436;2023-02-20T12:52:57;100676.94;;;14.19;54.08
40730;BME280;26418;50.070;8.436;2023-02-20T12:58:11;100669.00;;;14.23;52.07
40730;BME280;26418;50.070;8.436;2023-02-20T13:00:42;100663.84;;;14.21;52.22
40730;BME280;26418;50.070;8.436;2023-02-20T13:03:15;100662.53;;;14.19;52.36
40730;BME280;26418;50.070;8.436;2023-02-20T13:05:44;100640.50;;;14.06;51.96
40730;BME280;26418;50.070;8.436;2023-02-20T13:08:14;100652.78;;;14.04;51.97
40730;BME280;26418;50.070;8.436;2023-02-20T13:11:03;100642.56;;;13.87;51.32
40730;BME280;26418;50.070;8.436;2023-02-20T13:13:56;100629.97;;;13.77;51.94
40730;BME280;26418;50.070;8.436;2023-02-20T13:16:48;100630.78;;;13.77;51.89
40730;BME280;26418;50.070;8.436;2023-02-20T13:21:54;100615.31;;;13.64;51.89
40730;BME280;26418;50.070;8.436;2023-02-20T13:26:50;100614.69;;;13.53;52.45
40730;BME280;26418;50.070;8.436;2023-02-20T13:29:20;100616.94;;;13.51;52.18
40730;BME280;26418;50.070;8.436;2023-02-20T13:34:32;100588.13;;;13.36;52.29
40730;BME280;26418;50.070;8.436;2023-02-20T13:36:58;100580.88;;;13.31;52.16
40730;BME280;26418;50.070;8.436;2023-02-20T13:44:37;100566.00;;;13.29;51.91
40730;BME280;26418;50.070;8.436;2023-02-20T13:55:21;100561.06;;;13.17;52.56
40730;BME280;26418;50.070;8.436;2023-02-20T14:03:22;100538.00;;;13.14;53.47
40730;BME280;26418;50.070;8.436;2023-02-20T14:06:17;100533.69;;;13.27;53.64
40730;BME280;26418;50.070;8.436;2023-02-20T14:08:48;100522.81;;;13.27;53.00
40730;BME280;26418;50.070;8.436;2023-02-20T14:11:23;100531.38;;;13.34;53.87
40730;BME280;26418;50.070;8.436;2023-02-20T14:13:50;100518.00;;;13.38;52.80
40730;BME280;26418;50.070;8.436;2023-02-20T14:16:29;100510.38;;;13.26;52.43
40730;BME280;26418;50.070;8.436;2023-02-20T14:18:57;100508.34;;;13.18;52.90
40730;BME280;26418;50.070;8.436;2023-02-20T14:21:23;100512.78;;;13.14;53.41
40730;BME280;26418;50.070;8.436;2023-02-20T14:23:50;100503.84;;;13.13;53.06
40730;BME280;26418;50.070;8.436;2023-02-20T14:26:26;100498.19;;;13.10;53.41
40730;BME280;26418;50.070;8.436;2023-02-20T14:28:54;100496.88;;;13.07;53.07
40730;BME280;26418;50.070;8.436;2023-02-20T14:33:46;100487.44;;;13.04;54.82
40730;BME280;26418;50.070;8.436;2023-02-20T14:36:20;100482.00;;;13.04;55.41
40730;BME280;26418;50.070;8.436;2023-02-20T14:41:57;100475.47;;;12.92;55.70
40730;BME280;26418;50.070;8.436;2023-02-20T14:44:23;100483.72;;;12.86;56.36
40730;BME280;26418;50.070;8.436;2023-02-20T14:46:55;100476.19;;;12.83;56.26
40730;BME280;26418;50.070;8.436;2023-02-20T14:49:28;100464.81;;;12.81;56.63
40730;BME280;26418;50.070;8.436;2023-02-20T14:54:36;100472.06;;;12.86;57.56
40730;BME280;26418;50.070;8.436;2023-02-20T14:57:02;100472.69;;;12.83;56.54
40730;BME280;26418;50.070;8.436;2023-02-20T14:59:34;100462.91;;;12.82;56.04
40730;BME280;26418;50.070;8.436;2023-02-20T15:02:02;100447.13;;;12.70;56.31
40730;BME280;26418;50.070;8.436;2023-02-20T15:04:28;100464.72;;;12.72;56.87